sensor_id;sensor_type;location;lat;lon;timestamp;temperature;humidity
15099;DHT22;33900;53.640;9.942;2022-07-06T00:01:46;18.70;78.90
15099;DHT22;33900;53.640;9.942;2022-07-06T00:04:14;18.70;79.00
15099;DHT22;33900;53.640;9.942;2022-07-06T00:06:40;18.70;79.30
15099;DHT22;33900;53.640;9.942;2022-07-06T00:09:06;18.70;79.60
15099;DHT22;33900;53.640;9.942;2022-07-06T00:11:35;18.70;79.50
15099;DHT22;33900;53.640;9.942;2022-07-06T00:14:00;18.70;79.70
15099;DHT22;33900;53.640;9.942;2022-07-06T00:16:26;18.70;79.80
15099;DHT22;33900;53.640;9.942;2022-07-06T00:18:54;18.70;79.80
15099;DHT22;33900;53.640;9.942;2022-07-06T00:21:23;18.80;79.70
15099;DHT22;33900;53.640;9.942;2022-07-06T00:23:48;18.80;79.80
15099;DHT22;33900;53.640;9.942;2022-07-06T00:26:14;18.80;79.60
15099;DHT22;33900;53.640;9.942;2022-07-06T00:28:39;18.80;79.60
15099;DHT22;33900;53.640;9.942;2022-07-06T00:31:05;18.80;79.70
15099;DHT22;33900;53.640;9.942;2022-07-06T00:33:31;18.90;79.60
15099;DHT22;33900;53.640;9.942;2022-07-06T00:35:57;18.90;79.70
15099;DHT22;33900;53.640;9.942;2022-07-06T00:38:22;18.90;79.60
15099;DHT22;33900;53.640;9.942;2022-07-06T00:40:54;18.90;79.60
15099;DHT22;33900;53.640;9.942;2022-07-06T00:43:20;19.00;79.50
15099;DHT22;33900;53.640;9.942;2022-07-06T00:45:45;19.00;79.10
15099;DHT22;33900;53.640;9.942;2022-07-06T00:48:11;19.00;78.90
15099;DHT22;33900;53.640;9.942;2022-07-06T00:50:37;19.00;78.90
15099;DHT22;33900;53.640;9.942;2022-07-06T00:53:04;19.00;78.90
15099;DHT22;33900;53.640;9.942;2022-07-06T00:55:31;19.00;78.80
15099;DHT22;33900;53.640;9.942;2022-07-06T00:57:57;19.00;78.70
15099;DHT22;33900;53.640;9.942;2022-07-06T01:00:23;19.10;78.70
15099;DHT22;33900;53.640;9.942;2022-07-06T01:02:49;19.10;78.50
15099;DHT22;33900;53.640;9.942;2022-07-06T01:05:16;19.00;78.20
15099;DHT22;33900;53.640;9.942;2022-07-06T01:07:42;19.00;78.30
15099;DHT22;33900;53.640;9.942;2022-07-06T01:10:08;19.10;78.10
15099;DHT22;33900;53.640;9.942;2022-07-06T01:12:35;19.10;78.00
15099;DHT22;33900;53.640;9.942;2022-07-06T01:15:05;19.10;78.00
15099;DHT22;33900;53.640;9.942;2022-07-06T01:17:32;19.10;77.90
15099;DHT22;33900;53.640;9.942;2022-07-06T01:19:58;19.10;77.80
15099;DHT22;33900;53.640;9.942;2022-07-06T01:22:26;19.10;77.80
15099;DHT22;33900;53.640;9.942;2022-07-06T01:24:52;19.00;77.70
15099;DHT22;33900;53.640;9.942;2022-07-06T01:27:18;19.00;77.70
15099;DHT22;33900;53.640;9.942;2022-07-06T01:29:44;19.00;77.50
15099;DHT22;33900;53.640;9.942;2022-07-06T01:32:09;18.90;77.50
15099;DHT22;33900;53.640;9.942;2022-07-06T01:34:35;18.90;77.80
15099;DHT22;33900;53.640;9.942;2022-07-06T01:37:03;18.90;78.00
15099;DHT22;33900;53.640;9.942;2022-07-06T01:39:28;18.90;78.20
15099;DHT22;33900;53.640;9.942;2022-07-06T01:41:54;18.80;78.20
15099;DHT22;33900;53.640;9.942;2022-07-06T01:44:19;18.80;78.20
15099;DHT22;33900;53.640;9.942;2022-07-06T01:46:45;18.80;78.40
15099;DHT22;33900;53.640;9.942;2022-07-06T01:49:10;18.80;78.40
15099;DHT22;33900;53.640;9.942;2022-07-06T01:51:36;18.70;78.40
15099;DHT22;33900;53.640;9.942;2022-07-06T01:54:02;18.70;78.40
15099;DHT22;33900;53.640;9.942;2022-07-06T01:56:29;18.70;78.70
15099;DHT22;33900;53.640;9.942;2022-07-06T01:58:58;18.70;78.80
15099;DHT22;33900;53.640;9.942;2022-07-06T02:01:24;18.70;78.80
15099;DHT22;33900;53.640;9.942;2022-07-06T02:03:50;18.60;78.70
15099;DHT22;33900;53.640;9.942;2022-07-06T02:06:15;18.60;78.90
15099;DHT22;33900;53.640;9.942;2022-07-06T02:08:42;18.60;79.00
15099;DHT22;33900;53.640;9.942;2022-07-06T02:11:09;18.50;78.90
15099;DHT22;33900;53.640;9.942;2022-07-06T02:13:37;18.50;79.20
15099;DHT22;33900;53.640;9.942;2022-07-06T02:16:05;18.50;79.30
15099;DHT22;33900;53.640;9.942;2022-07-06T02:18:31;18.50;80.20
15099;DHT22;33900;53.640;9.942;2022-07-06T02:20:56;18.50;80.90
15099;DHT22;33900;53.640;9.942;2022-07-06T02:23:22;18.50;81.30
15099;DHT22;33900;53.640;9.942;2022-07-06T02:25:48;18.50;81.80
15099;DHT22;33900;53.640;9.942;2022-07-06T02:28:14;18.40;81.80
15099;DHT22;33900;53.640;9.942;2022-07-06T02:30:40;18.40;81.70
15099;DHT22;33900;53.640;9.942;2022-07-06T02:33:06;18.40;82.10
15099;DHT22;33900;53.640;9.942;2022-07-06T02:35:32;18.30;82.40
15099;DHT22;33900;53.640;9.942;2022-07-06T02:37:59;18.30;82.30
15099;DHT22;33900;53.640;9.942;2022-07-06T02:40:25;18.30;82.50
15099;DHT22;33900;53.640;9.942;2022-07-06T02:42:50;18.20;82.60
15099;DHT22;33900;53.640;9.942;2022-07-06T02:45:20;18.20;82.50
15099;DHT22;33900;53.640;9.942;2022-07-06T02:47:45;18.20;82.90
15099;DHT22;33900;53.640;9.942;2022-07-06T02:50:11;18.10;83.70
15099;DHT22;33900;53.640;9.942;2022-07-06T02:52:37;18.10;83.10
15099;DHT22;33900;53.640;9.942;2022-07-06T02:55:03;18.10;83.30
15099;DHT22;33900;53.640;9.942;2022-07-06T02:57:32;18.10;82.70
15099;DHT22;33900;53.640;9.942;2022-07-06T02:59:57;18.10;82.80
15099;DHT22;33900;53.640;9.942;2022-07-06T03:02:23;18.00;82.60
15099;DHT22;33900;53.640;9.942;2022-07-06T03:04:49;18.00;82.70
15099;DHT22;33900;53.640;9.942;2022-07-06T03:07:15;18.00;82.60
15099;DHT22;33900;53.640;9.942;2022-07-06T03:09:42;18.00;82.70
15099;DHT22;33900;53.640;9.942;2022-07-06T03:12:08;18.00;82.70
15099;DHT22;33900;53.640;9.942;2022-07-06T03:14:37;18.00;82.60
15099;DHT22;33900;53.640;9.942;2022-07-06T03:17:07;18.00;82.70
15099;DHT22;33900;53.640;9.942;2022-07-06T03:19:32;18.00;82.90
15099;DHT22;33900;53.640;9.942;2022-07-06T03:21:58;18.00;82.90
15099;DHT22;33900;53.640;9.942;2022-07-06T03:24:24;18.00;83.10
15099;DHT22;33900;53.640;9.942;2022-07-06T03:26:50;18.00;83.40
15099;DHT22;33900;53.640;9.942;2022-07-06T03:29:16;18.00;83.40
15099;DHT22;33900;53.640;9.942;2022-07-06T03:31:42;18.00;83.30
15099;DHT22;33900;53.640;9.942;2022-07-06T03:34:07;18.00;83.50
15099;DHT22;33900;53.640;9.942;2022-07-06T03:36:34;18.00;83.60
15099;DHT22;33900;53.640;9.942;2022-07-06T03:39:03;18.00;83.60
15099;DHT22;33900;53.640;9.942;2022-07-06T03:41:30;18.00;83.60
15099;DHT22;33900;53.640;9.942;2022-07-06T03:43:55;18.00;83.80
15099;DHT22;33900;53.640;9.942;2022-07-06T03:46:21;18.00;84.10
15099;DHT22;33900;53.640;9.942;2022-07-06T03:48:50;18.00;84.30
15099;DHT22;33900;53.640;9.942;2022-07-06T03:51:16;18.00;84.30
15099;DHT22;33900;53.640;9.942;2022-07-06T03:53:42;18.00;84.60
15099;DHT22;33900;53.640;9.942;2022-07-06T03:56:07;18.00;84.90
15099;DHT22;33900;53.640;9.942;2022-07-06T03:58:55;18.00;84.90
15099;DHT22;33900;53.640;9.942;2022-07-06T04:01:26;18.00;84.70
15099;DHT22;33900;53.640;9.942;2022-07-06T04:03:53;18.00;84.80
15099;DHT22;33900;53.640;9.942;2022-07-06T04:06:19;18.00;84.80
15099;DHT22;33900;53.640;9.942;2022-07-06T04:08:45;18.00;85.30
15099;DHT22;33900;53.640;9.942;2022-07-06T04:11:10;17.90;85.40
15099;DHT22;33900;53.640;9.942;2022-07-06T04:13:36;17.90;85.40
15099;DHT22;33900;53.640;9.942;2022-07-06T04:16:04;17.90;85.50
15099;DHT22;33900;53.640;9.942;2022-07-06T04:18:30;17.90;86.00
15099;DHT22;33900;53.640;9.942;2022-07-06T04:20:56;17.90;85.40
15099;DHT22;33900;53.640;9.942;2022-07-06T04:23:23;17.90;85.80
15099;DHT22;33900;53.640;9.942;2022-07-06T04:25:50;17.80;86.00
15099;DHT22;33900;53.640;9.942;2022-07-06T04:28:17;17.80;86.30
15099;DHT22;33900;53.640;9.942;2022-07-06T04:30:43;17.80;86.30
15099;DHT22;33900;53.640;9.942;2022-07-06T04:33:12;17.80;86.20
15099;DHT22;33900;53.640;9.942;2022-07-06T04:35:39;17.80;86.30
15099;DHT22;33900;53.640;9.942;2022-07-06T04:38:05;17.80;85.80
15099;DHT22;33900;53.640;9.942;2022-07-06T04:40:31;17.80;85.40
15099;DHT22;33900;53.640;9.942;2022-07-06T04:43:00;17.80;85.60
15099;DHT22;33900;53.640;9.942;2022-07-06T04:45:28;17.80;86.30
15099;DHT22;33900;53.640;9.942;2022-07-06T04:47:54;17.80;86.30
15099;DHT22;33900;53.640;9.942;2022-07-06T04:50:20;17.80;86.40
15099;DHT22;33900;53.640;9.942;2022-07-06T04:52:46;17.80;86.60
15099;DHT22;33900;53.640;9.942;2022-07-06T04:55:12;17.80;86.30
15099;DHT22;33900;53.640;9.942;2022-07-06T04:57:40;17.90;86.50
15099;DHT22;33900;53.640;9.942;2022-07-06T05:00:06;17.90;86.30
15099;DHT22;33900;53.640;9.942;2022-07-06T05:02:41;17.90;86.20
15099;DHT22;33900;53.640;9.942;2022-07-06T05:05:07;17.80;85.90
15099;DHT22;33900;53.640;9.942;2022-07-06T05:07:35;17.80;86.00
15099;DHT22;33900;53.640;9.942;2022-07-06T05:10:08;17.80;86.00
15099;DHT22;33900;53.640;9.942;2022-07-06T05:12:35;17.80;86.00
15099;DHT22;33900;53.640;9.942;2022-07-06T05:15:01;17.80;86.00
15099;DHT22;33900;53.640;9.942;2022-07-06T05:17:28;17.80;86.40
15099;DHT22;33900;53.640;9.942;2022-07-06T05:19:54;17.90;86.30
15099;DHT22;33900;53.640;9.942;2022-07-06T05:22:19;17.80;85.90
15099;DHT22;33900;53.640;9.942;2022-07-06T05:24:45;17.90;86.00
15099;DHT22;33900;53.640;9.942;2022-07-06T05:27:11;17.90;85.90
15099;DHT22;33900;53.640;9.942;2022-07-06T05:29:37;17.80;85.80
15099;DHT22;33900;53.640;9.942;2022-07-06T05:32:03;17.80;85.60
15099;DHT22;33900;53.640;9.942;2022-07-06T05:34:29;17.90;85.60
15099;DHT22;33900;53.640;9.942;2022-07-06T05:36:55;17.90;85.90
15099;DHT22;33900;53.640;9.942;2022-07-06T05:39:21;17.90;86.00
15099;DHT22;33900;53.640;9.942;2022-07-06T05:41:48;17.90;85.80
15099;DHT22;33900;53.640;9.942;2022-07-06T05:44:15;17.90;86.00
15099;DHT22;33900;53.640;9.942;2022-07-06T05:46:41;17.90;85.90
15099;DHT22;33900;53.640;9.942;2022-07-06T05:49:06;17.90;86.10
15099;DHT22;33900;53.640;9.942;2022-07-06T05:51:51;17.90;86.40
15099;DHT22;33900;53.640;9.942;2022-07-06T05:54:18;17.90;87.20
15099;DHT22;33900;53.640;9.942;2022-07-06T05:56:45;17.90;87.50
15099;DHT22;33900;53.640;9.942;2022-07-06T05:59:10;17.90;87.70
15099;DHT22;33900;53.640;9.942;2022-07-06T06:01:37;17.90;88.30
15099;DHT22;33900;53.640;9.942;2022-07-06T06:04:08;17.90;88.50
15099;DHT22;33900;53.640;9.942;2022-07-06T06:06:34;17.90;89.20
15099;DHT22;33900;53.640;9.942;2022-07-06T06:09:01;17.90;89.20
15099;DHT22;33900;53.640;9.942;2022-07-06T06:11:26;17.80;89.00
15099;DHT22;33900;53.640;9.942;2022-07-06T06:13:53;17.80;88.90
15099;DHT22;33900;53.640;9.942;2022-07-06T06:16:19;17.80;89.50
15099;DHT22;33900;53.640;9.942;2022-07-06T06:18:45;17.80;89.30
15099;DHT22;33900;53.640;9.942;2022-07-06T06:21:12;17.80;89.50
15099;DHT22;33900;53.640;9.942;2022-07-06T06:23:37;17.80;89.80
15099;DHT22;33900;53.640;9.942;2022-07-06T06:26:03;17.80;89.80
15099;DHT22;33900;53.640;9.942;2022-07-06T06:28:29;17.80;90.00
15099;DHT22;33900;53.640;9.942;2022-07-06T06:30:55;17.80;90.20
15099;DHT22;33900;53.640;9.942;2022-07-06T06:33:23;17.80;90.10
15099;DHT22;33900;53.640;9.942;2022-07-06T06:35:52;17.90;90.10
15099;DHT22;33900;53.640;9.942;2022-07-06T06:38:18;17.90;90.20
15099;DHT22;33900;53.640;9.942;2022-07-06T06:40:44;17.90;90.10
15099;DHT22;33900;53.640;9.942;2022-07-06T06:43:10;17.90;90.30
15099;DHT22;33900;53.640;9.942;2022-07-06T06:45:43;17.90;90.30
15099;DHT22;33900;53.640;9.942;2022-07-06T06:48:10;17.90;90.00
15099;DHT22;33900;53.640;9.942;2022-07-06T06:50:35;17.90;90.00
15099;DHT22;33900;53.640;9.942;2022-07-06T06:53:02;17.90;89.70
15099;DHT22;33900;53.640;9.942;2022-07-06T06:55:29;17.90;89.40
15099;DHT22;33900;53.640;9.942;2022-07-06T06:57:54;18.00;89.80
15099;DHT22;33900;53.640;9.942;2022-07-06T07:00:20;17.90;89.40
15099;DHT22;33900;53.640;9.942;2022-07-06T07:02:46;18.00;89.60
15099;DHT22;33900;53.640;9.942;2022-07-06T07:05:12;17.90;89.20
15099;DHT22;33900;53.640;9.942;2022-07-06T07:07:38;18.00;89.40
15099;DHT22;33900;53.640;9.942;2022-07-06T07:10:04;18.00;89.90
15099;DHT22;33900;53.640;9.942;2022-07-06T07:12:30;18.00;89.10
15099;DHT22;33900;53.640;9.942;2022-07-06T07:14:58;18.00;89.70
15099;DHT22;33900;53.640;9.942;2022-07-06T07:17:25;18.00;89.90
15099;DHT22;33900;53.640;9.942;2022-07-06T07:19:51;18.00;90.00
15099;DHT22;33900;53.640;9.942;2022-07-06T07:22:17;18.10;90.30
15099;DHT22;33900;53.640;9.942;2022-07-06T07:24:42;18.10;89.90
15099;DHT22;33900;53.640;9.942;2022-07-06T07:27:08;18.10;89.90
15099;DHT22;33900;53.640;9.942;2022-07-06T07:29:34;18.10;89.50
15099;DHT22;33900;53.640;9.942;2022-07-06T07:31:59;18.10;89.10
15099;DHT22;33900;53.640;9.942;2022-07-06T07:34:25;18.10;89.00
15099;DHT22;33900;53.640;9.942;2022-07-06T07:36:51;18.20;89.10
15099;DHT22;33900;53.640;9.942;2022-07-06T07:39:16;18.10;88.40
15099;DHT22;33900;53.640;9.942;2022-07-06T07:41:42;18.20;88.00
15099;DHT22;33900;53.640;9.942;2022-07-06T07:44:07;18.20;88.10
15099;DHT22;33900;53.640;9.942;2022-07-06T07:46:33;18.20;89.00
15099;DHT22;33900;53.640;9.942;2022-07-06T07:48:59;18.20;88.40
15099;DHT22;33900;53.640;9.942;2022-07-06T07:51:24;18.20;88.20
15099;DHT22;33900;53.640;9.942;2022-07-06T07:53:50;18.20;87.50
15099;DHT22;33900;53.640;9.942;2022-07-06T07:56:16;18.30;87.90
15099;DHT22;33900;53.640;9.942;2022-07-06T07:58:41;18.30;87.70
15099;DHT22;33900;53.640;9.942;2022-07-06T08:01:07;18.30;87.50
15099;DHT22;33900;53.640;9.942;2022-07-06T08:03:32;18.40;87.50
15099;DHT22;33900;53.640;9.942;2022-07-06T08:05:58;18.40;87.50
15099;DHT22;33900;53.640;9.942;2022-07-06T08:08:24;18.50;87.70
15099;DHT22;33900;53.640;9.942;2022-07-06T08:10:50;18.50;87.40
15099;DHT22;33900;53.640;9.942;2022-07-06T08:13:15;18.60;85.70
15099;DHT22;33900;53.640;9.942;2022-07-06T08:15:41;18.60;86.60
15099;DHT22;33900;53.640;9.942;2022-07-06T08:18:07;18.60;85.40
15099;DHT22;33900;53.640;9.942;2022-07-06T08:20:35;18.60;85.40
15099;DHT22;33900;53.640;9.942;2022-07-06T08:23:00;18.70;85.90
15099;DHT22;33900;53.640;9.942;2022-07-06T08:25:26;18.70;85.50
15099;DHT22;33900;53.640;9.942;2022-07-06T08:27:51;18.70;85.40
15099;DHT22;33900;53.640;9.942;2022-07-06T08:30:17;18.70;85.40
15099;DHT22;33900;53.640;9.942;2022-07-06T08:32:43;18.70;85.30
15099;DHT22;33900;53.640;9.942;2022-07-06T08:35:09;18.70;85.50
15099;DHT22;33900;53.640;9.942;2022-07-06T08:37:35;18.70;85.40
15099;DHT22;33900;53.640;9.942;2022-07-06T08:40:03;18.70;85.50
15099;DHT22;33900;53.640;9.942;2022-07-06T08:42:32;18.70;85.30
15099;DHT22;33900;53.640;9.942;2022-07-06T08:44:58;18.70;85.80
15099;DHT22;33900;53.640;9.942;2022-07-06T08:47:24;18.70;85.50
15099;DHT22;33900;53.640;9.942;2022-07-06T08:49:51;18.60;85.70
15099;DHT22;33900;53.640;9.942;2022-07-06T08:52:17;18.60;86.50
15099;DHT22;33900;53.640;9.942;2022-07-06T08:54:42;18.70;87.20
15099;DHT22;33900;53.640;9.942;2022-07-06T08:57:08;18.60;87.30
15099;DHT22;33900;53.640;9.942;2022-07-06T08:59:39;18.70;87.70
15099;DHT22;33900;53.640;9.942;2022-07-06T09:02:05;18.60;87.50
15099;DHT22;33900;53.640;9.942;2022-07-06T09:04:32;18.70;87.90
15099;DHT22;33900;53.640;9.942;2022-07-06T09:06:58;18.70;88.10
15099;DHT22;33900;53.640;9.942;2022-07-06T09:09:24;18.70;88.20
15099;DHT22;33900;53.640;9.942;2022-07-06T09:11:53;18.70;88.20
15099;DHT22;33900;53.640;9.942;2022-07-06T09:14:21;18.80;88.40
15099;DHT22;33900;53.640;9.942;2022-07-06T09:16:48;18.90;88.90
15099;DHT22;33900;53.640;9.942;2022-07-06T09:19:16;19.00;89.00
15099;DHT22;33900;53.640;9.942;2022-07-06T09:21:42;19.10;88.70
15099;DHT22;33900;53.640;9.942;2022-07-06T09:24:08;19.20;89.00
15099;DHT22;33900;53.640;9.942;2022-07-06T09:26:34;19.30;88.60
15099;DHT22;33900;53.640;9.942;2022-07-06T09:29:00;19.40;88.40
15099;DHT22;33900;53.640;9.942;2022-07-06T09:31:26;19.60;88.50
15099;DHT22;33900;53.640;9.942;2022-07-06T09:33:58;19.60;87.90
15099;DHT22;33900;53.640;9.942;2022-07-06T09:36:42;19.70;87.10
15099;DHT22;33900;53.640;9.942;2022-07-06T09:39:26;19.80;86.90
15099;DHT22;33900;53.640;9.942;2022-07-06T09:41:56;19.80;86.80
15099;DHT22;33900;53.640;9.942;2022-07-06T09:46:48;19.90;86.60
15099;DHT22;33900;53.640;9.942;2022-07-06T09:49:20;20.00;86.60
15099;DHT22;33900;53.640;9.942;2022-07-06T09:51:47;20.00;86.30
15099;DHT22;33900;53.640;9.942;2022-07-06T09:54:14;20.00;85.60
15099;DHT22;33900;53.640;9.942;2022-07-06T09:56:45;20.10;85.40
15099;DHT22;33900;53.640;9.942;2022-07-06T09:59:17;20.10;82.60
15099;DHT22;33900;53.640;9.942;2022-07-06T10:01:43;20.10;83.50
15099;DHT22;33900;53.640;9.942;2022-07-06T10:04:09;20.10;83.50
15099;DHT22;33900;53.640;9.942;2022-07-06T10:06:35;20.10;82.80
15099;DHT22;33900;53.640;9.942;2022-07-06T10:09:04;20.00;81.30
15099;DHT22;33900;53.640;9.942;2022-07-06T10:11:30;20.00;80.70
15099;DHT22;33900;53.640;9.942;2022-07-06T10:14:01;19.90;80.60
15099;DHT22;33900;53.640;9.942;2022-07-06T10:16:33;19.80;79.80
15099;DHT22;33900;53.640;9.942;2022-07-06T10:19:00;19.70;80.10
15099;DHT22;33900;53.640;9.942;2022-07-06T10:21:26;19.70;80.30
15099;DHT22;33900;53.640;9.942;2022-07-06T10:23:52;19.60;80.40
15099;DHT22;33900;53.640;9.942;2022-07-06T10:26:18;19.50;80.80
15099;DHT22;33900;53.640;9.942;2022-07-06T10:28:46;19.40;80.60
15099;DHT22;33900;53.640;9.942;2022-07-06T10:31:13;19.40;81.00
15099;DHT22;33900;53.640;9.942;2022-07-06T10:33:39;19.30;81.00
15099;DHT22;33900;53.640;9.942;2022-07-06T10:36:06;19.20;80.80
15099;DHT22;33900;53.640;9.942;2022-07-06T10:38:33;19.20;81.00
15099;DHT22;33900;53.640;9.942;2022-07-06T10:41:03;19.10;80.50
15099;DHT22;33900;53.640;9.942;2022-07-06T10:43:33;19.10;79.80
15099;DHT22;33900;53.640;9.942;2022-07-06T10:46:01;19.00;80.30
15099;DHT22;33900;53.640;9.942;2022-07-06T10:48:40;19.00;80.30
15099;DHT22;33900;53.640;9.942;2022-07-06T10:51:06;19.00;80.20
15099;DHT22;33900;53.640;9.942;2022-07-06T10:53:33;19.00;80.50
15099;DHT22;33900;53.640;9.942;2022-07-06T10:56:00;19.00;80.80
15099;DHT22;33900;53.640;9.942;2022-07-06T10:58:45;19.00;80.40
15099;DHT22;33900;53.640;9.942;2022-07-06T11:01:12;19.10;80.50
15099;DHT22;33900;53.640;9.942;2022-07-06T11:03:38;19.10;81.10
15099;DHT22;33900;53.640;9.942;2022-07-06T11:06:26;19.20;80.60
15099;DHT22;33900;53.640;9.942;2022-07-06T11:08:52;19.20;79.90
15099;DHT22;33900;53.640;9.942;2022-07-06T11:13:54;19.30;79.50
15099;DHT22;33900;53.640;9.942;2022-07-06T11:16:21;19.40;79.20
15099;DHT22;33900;53.640;9.942;2022-07-06T11:19:08;19.50;79.40
15099;DHT22;33900;53.640;9.942;2022-07-06T11:24:00;19.60;80.00
15099;DHT22;33900;53.640;9.942;2022-07-06T11:26:26;19.80;80.10
15099;DHT22;33900;53.640;9.942;2022-07-06T11:28:52;19.90;79.40
15099;DHT22;33900;53.640;9.942;2022-07-06T11:31:18;19.90;79.60
15099;DHT22;33900;53.640;9.942;2022-07-06T11:33:47;20.00;79.40
15099;DHT22;33900;53.640;9.942;2022-07-06T11:36:16;20.00;77.80
15099;DHT22;33900;53.640;9.942;2022-07-06T11:38:42;20.00;77.90
15099;DHT22;33900;53.640;9.942;2022-07-06T11:41:08;19.90;77.40
15099;DHT22;33900;53.640;9.942;2022-07-06T11:43:35;19.90;77.60
15099;DHT22;33900;53.640;9.942;2022-07-06T11:46:00;19.90;77.70
15099;DHT22;33900;53.640;9.942;2022-07-06T11:48:26;20.00;77.70
15099;DHT22;33900;53.640;9.942;2022-07-06T11:51:02;20.00;77.60
15099;DHT22;33900;53.640;9.942;2022-07-06T11:53:29;20.10;77.00
15099;DHT22;33900;53.640;9.942;2022-07-06T11:55:55;20.20;77.20
15099;DHT22;33900;53.640;9.942;2022-07-06T11:58:21;20.40;76.50
15099;DHT22;33900;53.640;9.942;2022-07-06T12:01:06;20.50;76.50
15099;DHT22;33900;53.640;9.942;2022-07-06T12:03:32;20.70;75.70
15099;DHT22;33900;53.640;9.942;2022-07-06T12:06:03;20.90;76.20
15099;DHT22;33900;53.640;9.942;2022-07-06T12:08:29;21.10;75.50
15099;DHT22;33900;53.640;9.942;2022-07-06T12:10:55;21.30;74.40
15099;DHT22;33900;53.640;9.942;2022-07-06T12:13:24;21.40;73.80
15099;DHT22;33900;53.640;9.942;2022-07-06T12:15:49;21.60;73.50
15099;DHT22;33900;53.640;9.942;2022-07-06T12:18:19;21.70;72.10
15099;DHT22;33900;53.640;9.942;2022-07-06T12:20:44;21.70;70.70
15099;DHT22;33900;53.640;9.942;2022-07-06T12:23:10;21.80;69.10
15099;DHT22;33900;53.640;9.942;2022-07-06T12:25:36;21.90;69.80
15099;DHT22;33900;53.640;9.942;2022-07-06T12:28:02;21.90;67.00
15099;DHT22;33900;53.640;9.942;2022-07-06T12:30:28;21.80;65.10
15099;DHT22;33900;53.640;9.942;2022-07-06T12:33:12;21.70;65.30
15099;DHT22;33900;53.640;9.942;2022-07-06T12:35:39;21.60;65.60
15099;DHT22;33900;53.640;9.942;2022-07-06T12:38:05;21.50;64.00
15099;DHT22;33900;53.640;9.942;2022-07-06T12:40:31;21.50;65.80
15099;DHT22;33900;53.640;9.942;2022-07-06T12:42:57;21.60;67.30
15099;DHT22;33900;53.640;9.942;2022-07-06T12:45:26;21.70;65.60
15099;DHT22;33900;53.640;9.942;2022-07-06T12:50:31;21.70;64.80
15099;DHT22;33900;53.640;9.942;2022-07-06T12:52:58;21.60;64.70
15099;DHT22;33900;53.640;9.942;2022-07-06T12:55:27;21.50;64.60
15099;DHT22;33900;53.640;9.942;2022-07-06T12:57:53;21.50;64.80
15099;DHT22;33900;53.640;9.942;2022-07-06T13:00:19;21.40;65.00
15099;DHT22;33900;53.640;9.942;2022-07-06T13:02:47;21.40;66.10
15099;DHT22;33900;53.640;9.942;2022-07-06T13:05:15;21.50;67.40
15099;DHT22;33900;53.640;9.942;2022-07-06T13:07:46;21.60;67.60
15099;DHT22;33900;53.640;9.942;2022-07-06T13:10:15;21.70;66.70
15099;DHT22;33900;53.640;9.942;2022-07-06T13:12:41;21.80;65.60
15099;DHT22;33900;53.640;9.942;2022-07-06T13:15:08;21.90;66.00
15099;DHT22;33900;53.640;9.942;2022-07-06T13:17:34;22.00;66.70
15099;DHT22;33900;53.640;9.942;2022-07-06T13:20:00;22.10;67.00
15099;DHT22;33900;53.640;9.942;2022-07-06T13:22:26;22.30;67.20
15099;DHT22;33900;53.640;9.942;2022-07-06T13:24:52;22.30;65.80
15099;DHT22;33900;53.640;9.942;2022-07-06T13:27:18;22.50;66.00
15099;DHT22;33900;53.640;9.942;2022-07-06T13:29:44;22.50;65.60
15099;DHT22;33900;53.640;9.942;2022-07-06T13:32:09;22.70;63.50
15099;DHT22;33900;53.640;9.942;2022-07-06T13:34:36;22.70;60.80
15099;DHT22;33900;53.640;9.942;2022-07-06T13:37:05;22.80;62.00
15099;DHT22;33900;53.640;9.942;2022-07-06T13:39:32;22.80;62.40
15099;DHT22;33900;53.640;9.942;2022-07-06T13:41:58;22.90;61.50
15099;DHT22;33900;53.640;9.942;2022-07-06T13:44:24;22.90;59.70
15099;DHT22;33900;53.640;9.942;2022-07-06T13:46:49;22.90;58.30
15099;DHT22;33900;53.640;9.942;2022-07-06T13:49:15;22.70;58.30
15099;DHT22;33900;53.640;9.942;2022-07-06T13:51:41;22.70;58.10
15099;DHT22;33900;53.640;9.942;2022-07-06T13:54:07;22.70;57.60
15099;DHT22;33900;53.640;9.942;2022-07-06T13:56:33;22.70;58.70
15099;DHT22;33900;53.640;9.942;2022-07-06T13:58:58;22.70;58.90
15099;DHT22;33900;53.640;9.942;2022-07-06T14:01:24;22.70;58.20
15099;DHT22;33900;53.640;9.942;2022-07-06T14:03:50;22.80;58.20
15099;DHT22;33900;53.640;9.942;2022-07-06T14:06:15;22.80;57.70
15099;DHT22;33900;53.640;9.942;2022-07-06T14:08:41;22.80;58.30
15099;DHT22;33900;53.640;9.942;2022-07-06T14:11:11;22.90;59.10
15099;DHT22;33900;53.640;9.942;2022-07-06T14:13:37;22.90;58.00
15099;DHT22;33900;53.640;9.942;2022-07-06T14:16:03;23.00;57.90
15099;DHT22;33900;53.640;9.942;2022-07-06T14:18:29;23.00;57.90
15099;DHT22;33900;53.640;9.942;2022-07-06T14:20:54;23.10;57.60
15099;DHT22;33900;53.640;9.942;2022-07-06T14:23:20;23.10;57.80
15099;DHT22;33900;53.640;9.942;2022-07-06T14:25:47;23.00;57.70
15099;DHT22;33900;53.640;9.942;2022-07-06T14:28:13;23.00;56.60
15099;DHT22;33900;53.640;9.942;2022-07-06T14:30:39;22.90;56.50
15099;DHT22;33900;53.640;9.942;2022-07-06T14:33:08;22.90;56.20
15099;DHT22;33900;53.640;9.942;2022-07-06T14:35:38;22.80;57.00
15099;DHT22;33900;53.640;9.942;2022-07-06T14:38:04;22.90;58.00
15099;DHT22;33900;53.640;9.942;2022-07-06T14:40:30;22.80;58.50
15099;DHT22;33900;53.640;9.942;2022-07-06T14:42:56;22.80;57.40
15099;DHT22;33900;53.640;9.942;2022-07-06T14:45:22;22.80;57.90
15099;DHT22;33900;53.640;9.942;2022-07-06T14:47:47;22.70;58.10
15099;DHT22;33900;53.640;9.942;2022-07-06T14:50:13;22.70;58.10
15099;DHT22;33900;53.640;9.942;2022-07-06T14:52:38;22.70;58.40
15099;DHT22;33900;53.640;9.942;2022-07-06T14:55:04;22.70;57.40
15099;DHT22;33900;53.640;9.942;2022-07-06T14:57:30;22.70;57.30
15099;DHT22;33900;53.640;9.942;2022-07-06T14:59:56;22.70;57.30
15099;DHT22;33900;53.640;9.942;2022-07-06T15:02:21;22.60;57.90
15099;DHT22;33900;53.640;9.942;2022-07-06T15:04:47;22.60;58.80
15099;DHT22;33900;53.640;9.942;2022-07-06T15:07:13;22.70;58.20
15099;DHT22;33900;53.640;9.942;2022-07-06T15:09:38;22.70;57.80
15099;DHT22;33900;53.640;9.942;2022-07-06T15:12:05;22.70;58.10
15099;DHT22;33900;53.640;9.942;2022-07-06T15:14:31;22.70;57.70
15099;DHT22;33900;53.640;9.942;2022-07-06T15:16:57;22.70;57.70
15099;DHT22;33900;53.640;9.942;2022-07-06T15:19:23;22.70;57.40
15099;DHT22;33900;53.640;9.942;2022-07-06T15:21:52;22.70;56.70
15099;DHT22;33900;53.640;9.942;2022-07-06T15:24:17;22.60;56.80
15099;DHT22;33900;53.640;9.942;2022-07-06T15:26:47;22.60;57.20
15099;DHT22;33900;53.640;9.942;2022-07-06T15:29:12;22.50;57.80
15099;DHT22;33900;53.640;9.942;2022-07-06T15:31:38;22.40;58.10
15099;DHT22;33900;53.640;9.942;2022-07-06T15:34:03;22.30;58.40
15099;DHT22;33900;53.640;9.942;2022-07-06T15:36:29;22.30;58.60
15099;DHT22;33900;53.640;9.942;2022-07-06T15:38:57;22.20;59.00